Time;durP1;ratioP1;P1;durP2;ratioP2;P2;SDS_P1;SDS_P2;PMS_P1;PMS_P2;Temp;Humidity;BMP_temperature;BMP_pressure;BME280_temperature;BME280_humidity;BME280_pressure;Samples;Min_cycle;Max_cycle;Signal;HPM_P1;HPM_P2
2024/02/21 00:02:07;;;;;;;8.95;4.63;;;10.40;94.60;;;;;;5047256;28;20027;-68
2024/02/21 00:04:33;;;;;;;6.10;3.75;;;10.40;94.60;;;;;;5047584;28;20112;-69
2024/02/21 00:06:59;;;;;;;11.32;5.07;;;10.40;94.60;;;;;;5047914;28;20079;-68
2024/02/21 00:09:24;;;;;;;12.95;4.53;;;10.50;94.60;;;;;;5043213;28;20074;-68
2024/02/21 00:11:50;;;;;;;8.45;5.03;;;10.40;94.60;;;;;;5045436;28;20403;-69
2024/02/21 00:14:16;;;;;;;14.07;7.53;;;10.40;94.60;;;;;;5048779;28;20422;-69
2024/02/21 00:16:41;;;;;;;15.40;7.05;;;10.40;94.60;;;;;;5047134;28;20090;-69
2024/02/21 00:19:07;;;;;;;12.27;6.07;;;10.40;94.60;;;;;;5047839;28;20037;-68
2024/02/21 00:21:32;;;;;;;12.23;6.05;;;10.40;94.70;;;;;;5046922;28;20096;-69
2024/02/21 00:23:58;;;;;;;10.95;4.50;;;10.40;94.70;;;;;;5047969;28;20111;-70
2024/02/21 00:26:23;;;;;;;11.30;6.10;;;10.40;94.80;;;;;;5048318;28;20145;-68
2024/02/21 00:28:49;;;;;;;14.35;6.15;;;10.40;94.70;;;;;;5050247;28;20025;-67
2024/02/21 00:31:15;;;;;;;10.68;5.13;;;10.40;94.70;;;;;;5050793;28;20040;-70
2024/02/21 00:33:40;;;;;;;10.93;5.15;;;10.40;94.70;;;;;;5052322;28;20021;-68
2024/02/21 00:36:06;;;;;;;12.43;6.22;;;10.40;94.70;;;;;;5051387;28;20024;-68
2024/02/21 00:38:32;;;;;;;11.65;6.18;;;10.40;94.60;;;;;;5050718;28;20052;-68
2024/02/21 00:40:57;;;;;;;13.27;6.88;;;10.40;94.70;;;;;;5051420;28;20039;-68
2024/02/21 00:43:24;;;;;;;10.77;5.63;;;10.30;94.70;;;;;;5052537;28;20017;-68
2024/02/21 00:45:50;;;;;;;16.90;7.22;;;10.40;94.70;;;;;;5050886;28;20543;-69
2024/02/21 00:48:15;;;;;;;8.30;4.57;;;10.30;94.70;;;;;;5048475;28;20049;-68
2024/02/21 00:50:41;;;;;;;9.85;4.70;;;10.40;94.80;;;;;;5048272;28;20053;-69
2024/02/21 00:53:07;;;;;;;12.80;6.38;;;10.40;94.80;;;;;;5050744;28;20067;-69
2024/02/21 00:55:32;;;;;;;11.38;5.88;;;10.30;94.80;;;;;;5052158;28;20115;-70
2024/02/21 00:57:58;;;;;;;14.93;6.85;;;10.30;94.80;;;;;;5047440;28;20032;-70
2024/02/21 01:00:23;;;;;;;15.88;7.05;;;10.30;94.80;;;;;;5047441;28;20017;-69
2024/02/21 01:02:49;;;;;;;10.52;5.07;;;10.30;94.90;;;;;;5051676;28;20124;-69
2024/02/21 01:05:14;;;;;;;11.77;5.30;;;10.30;94.90;;;;;;5046560;28;20033;-69
2024/02/21 01:07:40;;;;;;;13.23;5.68;;;10.40;94.90;;;;;;5051998;28;20036;-69
2024/02/21 01:10:06;;;;;;;8.82;4.40;;;10.40;94.90;;;;;;5052007;28;20625;-69
2024/02/21 01:12:32;;;;;;;6.78;3.70;;;10.40;94.90;;;;;;5045452;28;20028;-69
2024/02/21 01:14:58;;;;;;;8.88;4.57;;;10.40;94.80;;;;;;5051743;28;20036;-69
2024/02/21 01:17:23;;;;;;;11.05;5.82;;;10.40;94.90;;;;;;5051211;28;20029;-69
2024/02/21 01:19:49;;;;;;;10.52;5.95;;;10.40;94.90;;;;;;5050758;28;20496;-69
2024/02/21 01:22:15;;;;;;;9.55;5.20;;;10.40;94.90;;;;;;5051011;28;20028;-69
2024/02/21 01:24:41;;;;;;;8.15;4.53;;;10.40;94.90;;;;;;5048493;28;20029;-69
2024/02/21 01:27:07;;;;;;;7.22;4.07;;;10.40;94.90;;;;;;5052596;28;20048;-69
2024/02/21 01:29:32;;;;;;;5.32;3.10;;;10.40;95.00;;;;;;5051294;28;20095;-69
2024/02/21 01:31:58;;;;;;;6.97;3.70;;;10.50;95.00;;;;;;5052669;28;20067;-69
2024/02/21 01:34:23;;;;;;;7.60;3.88;;;10.50;94.90;;;;;;5051968;28;20567;-69
2024/02/21 01:36:49;;;;;;;7.20;4.15;;;10.50;94.90;;;;;;5048218;28;20030;-69
2024/02/21 01:39:15;;;;;;;5.57;3.40;;;10.50;94.90;;;;;;5048959;28;20036;-70
2024/02/21 01:41:40;;;;;;;5.28;3.08;;;10.50;94.90;;;;;;5050972;28;20049;-69
2024/02/21 01:44:06;;;;;;;5.43;2.83;;;10.50;94.90;;;;;;5053323;28;20032;-70
2024/02/21 01:46:31;;;;;;;5.25;3.00;;;10.50;94.90;;;;;;5052391;28;20035;-69
2024/02/21 01:48:57;;;;;;;6.38;3.40;;;10.50;94.90;;;;;;5051314;28;20036;-70
2024/02/21 01:51:26;;;;;;;5.75;2.70;;;10.50;94.90;;;;;;5052452;28;20387;-70
2024/02/21 01:53:55;;;;;;;8.95;4.57;;;10.50;94.90;;;;;;5053249;28;20618;-69
2024/02/21 01:56:21;;;;;;;7.85;3.83;;;10.50;94.90;;;;;;5052381;28;20029;-70
2024/02/21 01:58:48;;;;;;;11.55;6.25;;;10.40;94.80;;;;;;5052343;28;20078;-70
2024/02/21 02:01:13;;;;;;;9.40;5.05;;;10.30;94.80;;;;;;5051432;28;20028;-70
2024/02/21 02:03:39;;;;;;;13.98;6.47;;;10.30;94.90;;;;;;5050826;28;20021;-69
2024/02/21 02:06:06;;;;;;;9.85;4.65;;;10.30;94.90;;;;;;5053853;28;20161;-69
2024/02/21 02:08:32;;;;;;;8.95;4.85;;;10.30;95.00;;;;;;5049306;28;20063;-70
2024/02/21 02:10:59;;;;;;;9.02;4.75;;;10.30;94.90;;;;;;5050857;28;20019;-71
2024/02/21 02:13:25;;;;;;;9.68;5.53;;;10.30;95.00;;;;;;5051074;28;20042;-69
2024/02/21 02:15:50;;;;;;;9.13;4.30;;;10.30;95.00;;;;;;5046795;28;20025;-68
2024/02/21 02:18:19;;;;;;;9.35;3.95;;;10.30;95.00;;;;;;5051159;28;20035;-69
2024/02/21 02:20:45;;;;;;;5.60;3.20;;;10.30;95.00;;;;;;5051273;28;20017;-69
2024/02/21 02:23:14;;;;;;;7.10;3.80;;;10.40;95.00;;;;;;5049135;28;20025;-69
2024/02/21 02:25:40;;;;;;;8.30;3.88;;;10.30;94.90;;;;;;5046942;28;20032;-69
2024/02/21 02:28:08;;;;;;;11.00;4.85;;;10.30;95.00;;;;;;5052453;28;20036;-69
2024/02/21 02:30:38;;;;;;;10.65;5.18;;;10.30;95.00;;;;;;5048118;28;20033;-69
2024/02/21 02:33:04;;;;;;;10.82;5.35;;;10.30;95.00;;;;;;5048340;28;20028;-68
2024/02/21 02:35:30;;;;;;;9.60;4.95;;;10.30;95.10;;;;;;5049138;28;20692;-68
2024/02/21 02:37:55;;;;;;;7.60;3.58;;;10.30;95.10;;;;;;5046898;28;20017;-68
2024/02/21 02:40:24;;;;;;;5.53;3.33;;;10.30;95.10;;;;;;5047656;28;20087;-68
2024/02/21 02:42:50;;;;;;;8.63;3.88;;;10.30;95.10;;;;;;5048973;28;20047;-68
2024/02/21 02:45:17;;;;;;;7.32;4.15;;;10.30;95.10;;;;;;5049918;28;20028;-68
2024/02/21 02:47:45;;;;;;;6.47;3.38;;;10.30;95.10;;;;;;5049523;28;20104;-67
2024/02/21 02:50:11;;;;;;;6.30;3.60;;;10.30;95.20;;;;;;5046250;28;20033;-67
2024/02/21 02:52:37;;;;;;;5.38;3.15;;;10.30;95.20;;;;;;5046851;28;20774;-68
2024/02/21 02:55:03;;;;;;;8.55;4.13;;;10.30;95.20;;;;;;5048738;28;20033;-68
2024/02/21 02:57:29;;;;;;;6.15;3.70;;;10.30;95.10;;;;;;5049748;28;20419;-68
2024/02/21 02:59:54;;;;;;;7.28;4.05;;;10.30;95.10;;;;;;5049347;28;20021;-68
2024/02/21 03:02:20;;;;;;;8.02;3.67;;;10.30;95.20;;;;;;5048036;28;20021;-68
2024/02/21 03:04:45;;;;;;;7.22;3.63;;;10.30;95.10;;;;;;5049591;28;20035;-67
2024/02/21 03:07:11;;;;;;;6.10;3.30;;;10.20;95.10;;;;;;5048212;28;20115;-68
2024/02/21 03:09:38;;;;;;;6.15;3.83;;;10.30;95.20;;;;;;5046011;28;20372;-67
2024/02/21 03:12:04;;;;;;;7.60;4.00;;;10.30;95.10;;;;;;5048482;28;20103;-67
2024/02/21 03:14:30;;;;;;;8.07;3.70;;;10.30;95.10;;;;;;5048783;28;20027;-67
2024/02/21 03:16:56;;;;;;;5.75;3.20;;;10.30;95.20;;;;;;5047265;28;20024;-68
2024/02/21 03:19:22;;;;;;;8.68;4.03;;;10.30;95.20;;;;;;5048227;28;20040;-68
2024/02/21 03:21:49;;;;;;;6.70;4.07;;;10.30;95.20;;;;;;5049142;28;20021;-68
2024/02/21 03:24:15;;;;;;;7.85;4.80;;;10.30;95.20;;;;;;5047682;28;20609;-68
2024/02/21 03:26:41;;;;;;;9.55;4.30;;;10.20;95.10;;;;;;5049204;28;20108;-68
2024/02/21 03:29:07;;;;;;;8.57;3.70;;;10.20;95.10;;;;;;5047693;28;20462;-68
2024/02/21 03:31:33;;;;;;;6.80;3.08;;;10.30;95.10;;;;;;5049849;28;20614;-68
2024/02/21 03:33:58;;;;;;;7.03;4.05;;;10.30;95.10;;;;;;5048223;28;20111;-68
2024/02/21 03:36:24;;;;;;;6.10;3.50;;;10.30;95.10;;;;;;5048694;28;20025;-68
2024/02/21 03:38:49;;;;;;;7.30;3.50;;;10.20;95.10;;;;;;5046886;28;20483;-68
2024/02/21 03:41:15;;;;;;;11.10;5.20;;;10.30;95.10;;;;;;5047285;28;20079;-68
2024/02/21 03:43:40;;;;;;;8.13;4.10;;;10.30;95.10;;;;;;5048660;28;20082;-68
2024/02/21 03:46:06;;;;;;;5.88;3.33;;;10.20;95.10;;;;;;5049633;28;20101;-68
2024/02/21 03:48:32;;;;;;;7.10;3.45;;;10.20;95.20;;;;;;5049065;28;20052;-68
2024/02/21 03:50:58;;;;;;;7.38;3.22;;;10.20;95.10;;;;;;5049211;28;20059;-68
2024/02/21 03:53:23;;;;;;;6.15;3.17;;;10.20;95.20;;;;;;5048947;28;20025;-68
2024/02/21 03:55:49;;;;;;;5.55;3.25;;;10.20;95.40;;;;;;5049371;28;20037;-68
2024/02/21 03:58:15;;;;;;;7.32;4.13;;;10.20;95.20;;;;;;5048695;28;20583;-69
2024/02/21 04:00:41;;;;;;;7.00;3.50;;;10.20;95.20;;;;;;5048621;28;20590;-69
2024/02/21 04:03:06;;;;;;;4.47;2.85;;;10.20;95.20;;;;;;5047692;28;20083;-68
2024/02/21 04:05:33;;;;;;;4.38;2.65;;;10.20;95.20;;;;;;5048655;28;20634;-69
2024/02/21 04:07:58;;;;;;;8.23;3.47;;;10.20;95.20;;;;;;5048017;28;20032;-69
2024/02/21 04:10:24;;;;;;;7.85;3.95;;;10.20;95.20;;;;;;5045636;28;20025;-69
2024/02/21 04:12:50;;;;;;;7.90;4.13;;;10.20;95.20;;;;;;5046722;28;20387;-70
2024/02/21 04:15:16;;;;;;;6.22;3.50;;;10.20;95.20;;;;;;5047148;28;20108;-69
2024/02/21 04:17:42;;;;;;;5.72;3.05;;;10.20;95.20;;;;;;5043201;28;20082;-67
2024/02/21 04:20:14;;;;;;;5.70;3.70;;;10.20;95.20;;;;;;5048187;28;20021;-68
2024/02/21 04:22:40;;;;;;;5.45;2.90;;;10.20;95.20;;;;;;5047454;28;20552;-68
2024/02/21 04:25:06;;;;;;;6.28;3.20;;;10.20;95.20;;;;;;5047416;28;20112;-68
2024/02/21 04:27:32;;;;;;;7.35;2.90;;;10.30;95.20;;;;;;5043420;28;20021;-68
2024/02/21 04:29:57;;;;;;;6.05;2.75;;;10.30;95.20;;;;;;5047571;28;20029;-68
2024/02/21 04:32:23;;;;;;;5.28;3.03;;;10.20;95.10;;;;;;5046137;28;20045;-68
2024/02/21 04:34:49;;;;;;;6.43;3.40;;;10.20;95.10;;;;;;5047704;28;20025;-68
2024/02/21 04:37:14;;;;;;;7.53;3.35;;;10.20;95.10;;;;;;5043702;28;20025;-68
2024/02/21 04:39:40;;;;;;;7.07;2.95;;;10.20;95.10;;;;;;5044141;28;20021;-68
2024/02/21 04:42:06;;;;;;;6.82;3.47;;;10.20;95.10;;;;;;5044750;28;20020;-69
2024/02/21 04:44:31;;;;;;;8.30;3.38;;;10.20;95.10;;;;;;5045533;28;20410;-68
2024/02/21 04:46:57;;;;;;;8.02;4.05;;;10.20;95.10;;;;;;5048860;28;20028;-68
2024/02/21 04:49:23;;;;;;;7.70;3.42;;;10.20;95.10;;;;;;5046873;28;20039;-68
2024/02/21 04:51:49;;;;;;;4.97;2.75;;;10.20;95.40;;;;;;5048177;28;20435;-67
2024/02/21 04:54:14;;;;;;;7.07;3.50;;;10.20;95.10;;;;;;5045336;28;20105;-67
2024/02/21 04:56:40;;;;;;;3.55;2.45;;;10.20;95.10;;;;;;5047213;28;20071;-67
2024/02/21 04:59:05;;;;;;;6.35;2.55;;;10.20;95.10;;;;;;5045043;28;20039;-67
2024/02/21 05:01:31;;;;;;;6.72;3.13;;;10.20;95.10;;;;;;5046329;28;20218;-69
2024/02/21 05:03:56;;;;;;;6.63;3.22;;;10.20;95.10;;;;;;5044116;28;20109;-68
2024/02/21 05:06:22;;;;;;;4.25;2.75;;;10.20;95.10;;;;;;5046228;28;20476;-68
2024/02/21 05:08:47;;;;;;;6.57;3.20;;;10.20;95.00;;;;;;5045480;28;20442;-67
2024/02/21 05:11:13;;;;;;;6.50;3.25;;;10.20;95.00;;;;;;5046484;28;20096;-68
2024/02/21 05:13:39;;;;;;;4.65;2.63;;;10.20;94.90;;;;;;5047190;28;20025;-67
2024/02/21 05:16:06;;;;;;;6.65;3.03;;;10.20;95.00;;;;;;5044519;28;20021;-69
2024/02/21 05:18:32;;;;;;;5.45;3.22;;;10.30;95.00;;;;;;5050515;28;20056;-69
2024/02/21 05:21:01;;;;;;;8.40;4.03;;;10.20;94.90;;;;;;5055204;28;20040;-69
2024/02/21 05:23:26;;;;;;;5.88;2.95;;;10.20;94.90;;;;;;5052192;28;20031;-69
2024/02/21 05:25:52;;;;;;;7.78;3.50;;;10.20;94.90;;;;;;5047534;28;20033;-69
2024/02/21 05:28:17;;;;;;;5.63;2.58;;;10.20;94.80;;;;;;5051126;28;20028;-69
2024/02/21 05:30:43;;;;;;;6.45;2.72;;;10.20;94.90;;;;;;5052087;28;20025;-69
2024/02/21 05:33:08;;;;;;;9.65;3.97;;;10.20;94.90;;;;;;5051721;28;20506;-69
2024/02/21 05:35:35;;;;;;;5.55;3.08;;;10.20;95.10;;;;;;5050858;28;20024;-69
2024/02/21 05:38:05;;;;;;;3.97;2.83;;;10.20;94.90;;;;;;5054032;28;20040;-69
2024/02/21 05:40:30;;;;;;;4.88;2.70;;;10.20;94.90;;;;;;5052725;28;20828;-69
2024/02/21 05:42:57;;;;;;;4.03;2.53;;;10.20;94.90;;;;;;5054805;28;20032;-69
2024/02/21 05:45:23;;;;;;;5.05;2.30;;;10.20;95.00;;;;;;5055346;28;20485;-69
2024/02/21 05:47:49;;;;;;;4.82;2.58;;;10.20;95.00;;;;;;5054151;28;20057;-69
2024/02/21 05:50:15;;;;;;;7.57;3.20;;;10.20;95.00;;;;;;5054211;28;20025;-68
2024/02/21 05:52:41;;;;;;;4.22;2.75;;;10.20;94.90;;;;;;5054380;28;20074;-69
2024/02/21 05:55:08;;;;;;;6.57;2.78;;;10.20;95.00;;;;;;5053976;28;20021;-69
2024/02/21 05:57:34;;;;;;;6.50;3.40;;;10.30;95.00;;;;;;5053613;28;20040;-69
2024/02/21 05:59:59;;;;;;;6.28;3.45;;;10.20;94.90;;;;;;5053907;28;20649;-68
2024/02/21 06:02:25;;;;;;;8.45;3.53;;;10.30;95.00;;;;;;5044120;28;20025;-68
2024/02/21 06:04:51;;;;;;;4.75;3.05;;;10.30;94.90;;;;;;5052686;28;20025;-68
2024/02/21 06:07:16;;;;;;;6.55;3.80;;;10.30;94.90;;;;;;5056245;28;20031;-68
2024/02/21 06:09:42;;;;;;;7.32;3.80;;;10.30;94.90;;;;;;5051458;28;20028;-68
2024/02/21 06:12:07;;;;;;;8.07;4.65;;;10.30;94.80;;;;;;5049471;28;20017;-69
2024/02/21 06:14:33;;;;;;;9.10;4.60;;;10.30;94.80;;;;;;5049812;28;20037;-69
2024/02/21 06:16:58;;;;;;;11.50;5.00;;;10.30;94.80;;;;;;5050353;28;20036;-68
2024/02/21 06:19:24;;;;;;;10.38;5.28;;;10.20;94.70;;;;;;5054399;28;20028;-68
2024/02/21 06:21:49;;;;;;;10.10;5.45;;;10.20;94.70;;;;;;5044813;28;20017;-68
2024/02/21 06:24:15;;;;;;;9.80;5.25;;;10.20;94.70;;;;;;5054099;28;20039;-68
2024/02/21 06:26:41;;;;;;;7.03;4.35;;;10.20;94.70;;;;;;5048788;28;20026;-69
2024/02/21 06:29:06;;;;;;;7.90;4.55;;;10.20;94.70;;;;;;5051798;28;20129;-70
2024/02/21 06:31:32;;;;;;;7.03;4.38;;;10.20;94.70;;;;;;5047317;28;20059;-69
2024/02/21 06:33:57;;;;;;;12.65;6.28;;;10.20;94.70;;;;;;5051794;28;20393;-69
2024/02/21 06:36:23;;;;;;;9.07;5.05;;;10.20;94.60;;;;;;5054451;28;20405;-69
2024/02/21 06:38:49;;;;;;;9.30;4.20;;;10.20;94.60;;;;;;5047253;28;20499;-69
2024/02/21 06:41:19;;;;;;;9.25;4.38;;;10.20;94.70;;;;;;5053348;28;20021;-69
2024/02/21 06:43:48;;;;;;;6.82;3.40;;;10.20;94.70;;;;;;5054510;28;20083;-70
2024/02/21 06:46:25;;;;;;;4.63;2.75;;;10.20;94.70;;;;;;5051188;28;20029;-69
2024/02/21 06:48:50;;;;;;;5.55;3.35;;;10.20;94.70;;;;;;5050162;28;20079;-69
2024/02/21 06:51:16;;;;;;;6.60;3.95;;;10.20;94.70;;;;;;5048776;28;20021;-69
2024/02/21 06:53:43;;;;;;;7.30;3.78;;;10.20;94.70;;;;;;5047530;28;20040;-68
2024/02/21 06:56:09;;;;;;;7.93;3.55;;;10.20;94.60;;;;;;5048296;28;20051;-67
2024/02/21 06:58:35;;;;;;;9.10;3.70;;;10.20;94.60;;;;;;5049337;28;20027;-67
2024/02/21 07:01:01;;;;;;;7.57;3.30;;;10.20;94.60;;;;;;5049165;28;20029;-67
2024/02/21 07:03:27;;;;;;;8.80;4.20;;;10.20;94.60;;;;;;5044613;28;20496;-68
2024/02/21 07:05:53;;;;;;;10.57;4.47;;;10.30;94.50;;;;;;5045676;28;20041;-68
2024/02/21 07:08:18;;;;;;;7.47;4.38;;;10.20;94.40;;;;;;5045460;28;20021;-68
2024/02/21 07:10:44;;;;;;;9.70;4.80;;;10.20;94.40;;;;;;5046973;28;20531;-68
2024/02/21 07:13:09;;;;;;;7.93;3.95;;;10.10;94.40;;;;;;5047185;28;20036;-68
2024/02/21 07:15:36;;;;;;;7.70;3.42;;;10.10;94.40;;;;;;5045232;28;20544;-68
2024/02/21 07:18:01;;;;;;;7.10;3.47;;;10.20;94.50;;;;;;5043419;28;20025;-68
2024/02/21 07:20:27;;;;;;;7.72;3.70;;;10.20;94.40;;;;;;5047986;28;20079;-68
2024/02/21 07:22:53;;;;;;;7.57;3.83;;;10.20;94.40;;;;;;5048722;28;20045;-68
2024/02/21 07:25:18;;;;;;;8.95;4.20;;;10.20;94.40;;;;;;5046846;28;20518;-71
2024/02/21 07:27:45;;;;;;;7.97;3.63;;;10.20;94.40;;;;;;5042353;28;20025;-67
2024/02/21 07:30:13;;;;;;;11.27;4.60;;;10.20;94.40;;;;;;5045421;28;20033;-68
2024/02/21 07:32:39;;;;;;;9.15;4.65;;;10.10;94.30;;;;;;5047781;28;20022;-68
2024/02/21 07:35:05;;;;;;;8.73;4.00;;;10.10;94.30;;;;;;5045305;28;20700;-68
2024/02/21 07:37:31;;;;;;;12.35;4.30;;;10.10;94.30;;;;;;5049067;28;20091;-68
2024/02/21 07:39:56;;;;;;;9.13;4.32;;;10.10;94.30;;;;;;5037727;28;20029;-68
2024/02/21 07:42:22;;;;;;;9.50;4.07;;;10.10;94.30;;;;;;5044125;28;20103;-68
2024/02/21 07:44:47;;;;;;;8.88;4.35;;;10.20;94.30;;;;;;5044154;28;20124;-68
2024/02/21 07:47:13;;;;;;;6.82;3.90;;;10.20;94.20;;;;;;5044431;28;20487;-68
2024/02/21 07:49:44;;;;;;;10.20;4.72;;;10.20;94.20;;;;;;5044183;28;20035;-67
2024/02/21 07:52:10;;;;;;;7.65;4.18;;;10.20;94.10;;;;;;5047688;28;20048;-67
2024/02/21 07:54:35;;;;;;;7.05;3.67;;;10.20;94.10;;;;;;5049468;28;20519;-67
2024/02/21 07:57:02;;;;;;;7.45;3.78;;;10.20;94.40;;;;;;5044492;28;20039;-67
2024/02/21 07:59:29;;;;;;;6.18;3.78;;;10.20;94.00;;;;;;5047184;28;20021;-67
2024/02/21 08:01:57;;;;;;;8.13;3.85;;;10.20;94.00;;;;;;5047364;28;20033;-67
2024/02/21 08:04:23;;;;;;;11.30;5.13;;;10.20;94.00;;;;;;5045346;28;20037;-68
2024/02/21 08:06:55;;;;;;;9.15;5.07;;;10.20;93.90;;;;;;5045991;28;20056;-68
2024/02/21 08:09:22;;;;;;;10.40;4.90;;;10.20;93.90;;;;;;5046270;28;20025;-68
2024/02/21 08:11:47;;;;;;;9.00;4.88;;;10.20;93.80;;;;;;5046517;28;20028;-68
2024/02/21 08:14:15;;;;;;;9.88;5.50;;;10.20;93.90;;;;;;5046650;28;20498;-68
2024/02/21 08:16:42;;;;;;;9.88;5.13;;;10.20;93.70;;;;;;5049896;28;20021;-68
2024/02/21 08:19:07;;;;;;;10.73;5.10;;;10.20;93.70;;;;;;5048285;28;20102;-68
2024/02/21 08:21:33;;;;;;;10.77;5.07;;;10.20;93.70;;;;;;5047622;28;20475;-70
2024/02/21 08:23:58;;;;;;;9.93;5.15;;;10.20;93.60;;;;;;5047842;28;20029;-68
2024/02/21 08:26:27;;;;;;;10.98;5.28;;;10.20;93.60;;;;;;5045910;28;20025;-69
2024/02/21 08:28:59;;;;;;;10.63;5.22;;;10.20;93.50;;;;;;5047211;28;20025;-69
2024/02/21 08:31:30;;;;;;;9.32;4.93;;;10.20;93.50;;;;;;5044240;28;20026;-69
2024/02/21 08:34:03;;;;;;;11.75;6.00;;;10.20;93.50;;;;;;5042363;28;20017;-69
2024/02/21 08:36:33;;;;;;;10.00;5.40;;;10.30;93.50;;;;;;5044625;28;20592;-69
2024/02/21 08:38:59;;;;;;;11.38;6.00;;;10.30;93.40;;;;;;5044107;28;20028;-69
2024/02/21 08:41:25;;;;;;;11.98;5.05;;;10.30;93.30;;;;;;5040090;28;20051;-68
2024/02/21 08:43:53;;;;;;;8.85;4.70;;;10.30;93.30;;;;;;5042561;28;20399;-70
2024/02/21 08:46:26;;;;;;;5.70;3.78;;;10.30;93.40;;;;;;5042353;28;20111;-68
2024/02/21 08:48:52;;;;;;;8.90;4.72;;;10.40;93.40;;;;;;5043255;28;20040;-70
2024/02/21 08:51:18;;;;;;;9.35;5.07;;;10.40;93.40;;;;;;5043737;28;20029;-68
2024/02/21 08:53:47;;;;;;;13.40;6.05;;;10.30;93.20;;;;;;5049621;28;20036;-69
2024/02/21 08:56:13;;;;;;;9.25;5.13;;;10.30;93.10;;;;;;5048385;28;20036;-69
2024/02/21 08:58:42;;;;;;;9.63;4.80;;;10.30;93.20;;;;;;5051971;28;20021;-70
2024/02/21 09:01:10;;;;;;;13.43;6.30;;;10.40;93.20;;;;;;5055398;28;20021;-69
2024/02/21 09:03:39;;;;;;;13.77;7.03;;;10.40;93.00;;;;;;5052508;28;20052;-69
2024/02/21 09:06:06;;;;;;;12.23;5.53;;;10.30;92.90;;;;;;5050748;28;20083;-68
2024/02/21 09:08:32;;;;;;;11.18;5.38;;;10.30;93.00;;;;;;5051613;28;20088;-69
2024/02/21 09:11:00;;;;;;;8.88;4.60;;;10.30;93.00;;;;;;5050928;28;20025;-68
2024/02/21 09:13:25;;;;;;;10.90;5.00;;;10.40;93.00;;;;;;5049794;28;20024;-67
2024/02/21 09:15:51;;;;;;;10.45;4.55;;;10.40;92.90;;;;;;5050715;28;20043;-68
2024/02/21 09:18:19;;;;;;;9.65;5.30;;;10.40;93.00;;;;;;5044040;28;20563;-68
2024/02/21 09:20:45;;;;;;;7.15;3.97;;;10.40;92.90;;;;;;5048680;28;20523;-67
2024/02/21 09:23:11;;;;;;;8.45;5.28;;;10.50;92.90;;;;;;5050638;28;20017;-68
2024/02/21 09:25:37;;;;;;;9.90;5.22;;;10.50;92.80;;;;;;5047438;28;20024;-68
2024/02/21 09:28:06;;;;;;;11.40;4.68;;;10.60;92.80;;;;;;5049925;28;20116;-68
2024/02/21 09:30:31;;;;;;;9.15;5.70;;;10.60;93.00;;;;;;5049552;28;20053;-68
2024/02/21 09:32:59;;;;;;;8.60;4.43;;;10.60;92.60;;;;;;5048669;28;20471;-69
2024/02/21 09:35:26;;;;;;;7.78;3.88;;;10.60;92.60;;;;;;5049558;28;20024;-69
2024/02/21 09:37:52;;;;;;;6.45;3.97;;;10.60;92.60;;;;;;5048100;28;20032;-68
2024/02/21 09:40:18;;;;;;;9.63;4.40;;;10.70;92.60;;;;;;5052795;28;20458;-69
2024/02/21 09:42:46;;;;;;;6.40;3.53;;;10.70;92.50;;;;;;5048624;28;20483;-69
2024/02/21 09:45:23;;;;;;;8.15;4.57;;;10.80;92.50;;;;;;5048594;28;20051;-69
2024/02/21 09:47:57;;;;;;;10.75;5.63;;;10.80;92.30;;;;;;5050091;28;20052;-69
2024/02/21 09:50:25;;;;;;;8.30;4.72;;;10.80;92.20;;;;;;5050860;28;20025;-69
2024/02/21 09:52:52;;;;;;;7.97;4.60;;;10.70;92.00;;;;;;5053422;28;20162;-70
2024/02/21 09:55:18;;;;;;;6.85;3.80;;;10.70;92.10;;;;;;5051062;28;20044;-69
2024/02/21 09:57:44;;;;;;;6.75;3.85;;;10.80;92.10;;;;;;5050230;28;20071;-70
2024/02/21 10:00:10;;;;;;;6.80;4.25;;;10.80;92.10;;;;;;5045502;28;20020;-70
2024/02/21 10:02:36;;;;;;;6.97;3.65;;;10.80;92.00;;;;;;5046665;28;20028;-69
2024/02/21 10:05:04;;;;;;;8.82;4.80;;;10.80;91.90;;;;;;5048133;28;20028;-69
2024/02/21 10:07:30;;;;;;;10.02;4.88;;;10.80;91.70;;;;;;5048354;28;20024;-70
2024/02/21 10:10:06;;;;;;;9.40;4.63;;;10.80;91.60;;;;;;5048398;28;20037;-68
2024/02/21 10:12:32;;;;;;;8.50;4.95;;;10.80;91.50;;;;;;5048849;28;20096;-68
2024/02/21 10:15:04;;;;;;;8.18;4.53;;;10.80;91.50;;;;;;5050224;28;20033;-68
2024/02/21 10:17:31;;;;;;;6.40;3.60;;;10.90;91.40;;;;;;5048372;28;20106;-69
2024/02/21 10:20:10;;;;;;;7.32;3.97;;;10.90;91.50;;;;;;5045171;28;20063;-68
2024/02/21 10:22:36;;;;;;;7.78;4.50;;;11.00;91.50;;;;;;5052847;28;20036;-69
2024/02/21 10:25:12;;;;;;;7.60;4.35;;;11.10;91.50;;;;;;5050548;28;20590;-68
2024/02/21 10:27:38;;;;;;;10.73;4.90;;;11.10;91.20;;;;;;5050202;28;20029;-67
2024/02/21 10:30:12;;;;;;;9.15;4.90;;;11.00;91.10;;;;;;5049382;28;20054;-68
2024/02/21 10:32:48;;;;;;;6.82;4.40;;;11.00;91.00;;;;;;5053069;28;20029;-68
2024/02/21 10:35:13;;;;;;;7.70;4.63;;;10.90;91.00;;;;;;5049601;28;20032;-69
2024/02/21 10:37:39;;;;;;;7.22;4.43;;;10.80;91.00;;;;;;5052225;28;20032;-69
2024/02/21 10:40:08;;;;;;;6.57;3.40;;;10.90;91.20;;;;;;5047703;28;20051;-68
2024/02/21 10:42:36;;;;;;;6.68;3.53;;;10.90;91.30;;;;;;5051855;28;20120;-69
2024/02/21 10:45:04;;;;;;;4.80;2.80;;;10.90;91.30;;;;;;5056510;28;20124;-69
2024/02/21 10:47:32;;;;;;;5.55;3.67;;;10.90;91.40;;;;;;5048960;28;20501;-68
2024/02/21 10:50:04;;;;;;;5.45;2.90;;;10.90;91.40;;;;;;5051421;28;20040;-68
2024/02/21 10:52:51;;;;;;;6.22;3.50;;;10.80;91.40;;;;;;5047240;28;20051;-68
2024/02/21 10:55:26;;;;;;;4.78;2.95;;;10.80;91.50;;;;;;5046657;28;20028;-68
2024/02/21 10:57:52;;;;;;;4.88;2.88;;;10.80;91.60;;;;;;5048418;28;20407;-69
2024/02/21 11:00:18;;;;;;;7.07;3.08;;;10.70;91.70;;;;;;5048755;28;20021;-69
2024/02/21 11:02:46;;;;;;;4.90;3.30;;;10.70;91.80;;;;;;5046616;28;20021;-68
2024/02/21 11:05:13;;;;;;;6.13;3.78;;;10.70;91.90;;;;;;5045050;28;20028;-69
2024/02/21 11:07:39;;;;;;;7.30;4.30;;;10.70;92.00;;;;;;5047060;28;20025;-69
2024/02/21 11:10:07;;;;;;;4.63;3.25;;;10.60;92.00;;;;;;5046442;28;20063;-68
2024/02/21 11:12:33;;;;;;;7.05;3.58;;;10.70;92.10;;;;;;5046252;28;20571;-68
2024/02/21 11:15:06;;;;;;;7.38;4.38;;;10.70;92.20;;;;;;5046227;28;20021;-68
2024/02/21 11:17:31;;;;;;;6.65;3.95;;;10.70;92.30;;;;;;5047930;28;20033;-68
2024/02/21 11:19:58;;;;;;;7.15;4.30;;;10.60;92.40;;;;;;5042931;28;20043;-68
2024/02/21 11:22:24;;;;;;;6.80;4.20;;;10.60;92.40;;;;;;5047882;28;20025;-68
2024/02/21 11:24:50;;;;;;;9.25;4.13;;;10.70;92.50;;;;;;5047785;28;20865;-67
2024/02/21 11:27:21;;;;;;;6.00;3.47;;;10.70;92.50;;;;;;5049862;28;20458;-68
2024/02/21 11:29:48;;;;;;;7.18;3.83;;;10.80;92.50;;;;;;5049268;28;20044;-68
2024/02/21 11:32:15;;;;;;;9.75;5.30;;;10.80;92.30;;;;;;5048715;28;20033;-68
2024/02/21 11:34:41;;;;;;;9.05;4.18;;;10.80;92.30;;;;;;5049152;28;20025;-68
2024/02/21 11:37:16;;;;;;;8.65;4.70;;;10.80;92.30;;;;;;5048085;28;20052;-68
2024/02/21 11:39:42;;;;;;;5.47;3.50;;;10.80;92.20;;;;;;5044363;28;20060;-68
2024/02/21 11:42:08;;;;;;;5.63;3.75;;;10.80;92.20;;;;;;5048707;28;20471;-68
2024/02/21 11:44:38;;;;;;;6.05;3.72;;;10.80;92.20;;;;;;5049319;28;20021;-68
2024/02/21 11:47:04;;;;;;;5.68;3.20;;;10.80;92.20;;;;;;5046633;28;20033;-68
2024/02/21 11:49:30;;;;;;;7.72;4.07;;;10.90;92.20;;;;;;5047242;28;20025;-68
2024/02/21 11:52:00;;;;;;;7.53;4.50;;;10.90;92.10;;;;;;5044291;28;20031;-69
2024/02/21 11:54:26;;;;;;;6.75;4.18;;;10.80;91.90;;;;;;5046304;28;20033;-68
2024/02/21 11:56:52;;;;;;;7.90;3.53;;;10.80;91.90;;;;;;5046337;28;20021;-68
2024/02/21 11:59:17;;;;;;;8.23;4.43;;;10.80;91.90;;;;;;5042933;28;20048;-68
2024/02/21 12:01:43;;;;;;;9.73;4.25;;;10.80;91.80;;;;;;5042912;28;20021;-68
2024/02/21 12:04:09;;;;;;;8.20;4.28;;;10.70;91.80;;;;;;5045979;28;20025;-68
2024/02/21 12:06:34;;;;;;;9.30;4.40;;;10.70;91.80;;;;;;5047986;28;20043;-68
2024/02/21 12:09:01;;;;;;;8.13;4.68;;;10.70;91.70;;;;;;5048437;28;20104;-68
2024/02/21 12:11:26;;;;;;;6.57;4.10;;;10.70;91.70;;;;;;5055033;28;20495;-68
2024/02/21 12:14:05;;;;;;;7.00;4.82;;;10.70;91.70;;;;;;5049431;28;20024;-68
2024/02/21 12:16:32;;;;;;;7.55;4.28;;;10.70;91.60;;;;;;5049985;28;20040;-68
2024/02/21 12:18:59;;;;;;;8.13;4.20;;;10.80;91.60;;;;;;5045741;28;20436;-69
2024/02/21 12:21:30;;;;;;;8.13;3.97;;;10.80;91.80;;;;;;5044877;28;20029;-68
2024/02/21 12:23:56;;;;;;;7.13;4.00;;;10.90;91.40;;;;;;5044394;28;20502;-68
2024/02/21 12:26:22;;;;;;;6.28;3.90;;;10.90;91.30;;;;;;5047765;28;20104;-68
2024/02/21 12:28:48;;;;;;;7.85;4.00;;;11.00;91.30;;;;;;5048713;28;20021;-68
2024/02/21 12:31:14;;;;;;;10.02;4.13;;;11.10;91.20;;;;;;5047311;28;20567;-66
2024/02/21 12:33:40;;;;;;;6.72;4.03;;;11.10;91.00;;;;;;5048684;28;20014;-67
2024/02/21 12:36:05;;;;;;;7.85;4.13;;;11.20;90.90;;;;;;5041392;28;20207;-68
2024/02/21 12:38:31;;;;;;;6.35;3.67;;;11.30;90.80;;;;;;5039208;28;20116;-68
2024/02/21 12:41:00;;;;;;;4.95;3.05;;;11.30;90.70;;;;;;5045551;28;20017;-69
2024/02/21 12:43:26;;;;;;;5.82;3.38;;;11.40;90.60;;;;;;5046344;28;20072;-68